sensor_id;sensor_type;location;lat;lon;timestamp;temperature;humidity
32107;DHT22;18622;51.998;10.440;2022-12-29T03:18:10;12.90;97.10
32107;DHT22;18622;51.998;10.440;2022-12-29T03:20:49;12.90;97.10
32107;DHT22;18622;51.998;10.440;2022-12-29T03:23:14;13.00;97.00
32107;DHT22;18622;51.998;10.440;2022-12-29T03:25:46;13.00;96.90
32107;DHT22;18622;51.998;10.440;2022-12-29T03:28:23;13.10;96.90
32107;DHT22;18622;51.998;10.440;2022-12-29T03:30:47;13.00;96.90
32107;DHT22;18622;51.998;10.440;2022-12-29T03:33:18;13.00;96.90
32107;DHT22;18622;51.998;10.440;2022-12-29T03:35:48;12.90;97.20
32107;DHT22;18622;51.998;10.440;2022-12-29T03:38:19;12.70;97.80
32107;DHT22;18622;51.998;10.440;2022-12-29T03:40:49;12.50;98.30
32107;DHT22;18622;51.998;10.440;2022-12-29T03:43:18;12.30;98.60
32107;DHT22;18622;51.998;10.440;2022-12-29T03:45:46;12.30;98.70
32107;DHT22;18622;51.998;10.440;2022-12-29T03:48:14;12.30;98.80
32107;DHT22;18622;51.998;10.440;2022-12-29T03:50:42;12.30;98.90
32107;DHT22;18622;51.998;10.440;2022-12-29T03:53:09;12.40;98.80
32107;DHT22;18622;51.998;10.440;2022-12-29T03:55:37;12.40;98.60
32107;DHT22;18622;51.998;10.440;2022-12-29T03:58:05;12.50;98.40
32107;DHT22;18622;51.998;10.440;2022-12-29T04:35:07;12.70;97.00
32107;DHT22;18622;51.998;10.440;2022-12-29T04:37:35;12.70;97.00
32107;DHT22;18622;51.998;10.440;2022-12-29T04:40:02;12.70;97.00
32107;DHT22;18622;51.998;10.440;2022-12-29T04:42:30;12.70;96.90
32107;DHT22;18622;51.998;10.440;2022-12-29T04:44:58;12.70;96.90
32107;DHT22;18622;51.998;10.440;2022-12-29T04:47:26;12.70;96.80
32107;DHT22;18622;51.998;10.440;2022-12-29T04:49:54;12.70;96.80
32107;DHT22;18622;51.998;10.440;2022-12-29T04:52:21;12.70;96.80
32107;DHT22;18622;51.998;10.440;2022-12-29T04:54:49;12.70;96.80
32107;DHT22;18622;51.998;10.440;2022-12-29T04:57:17;12.70;96.70
32107;DHT22;18622;51.998;10.440;2022-12-29T04:59:45;12.80;96.60
32107;DHT22;18622;51.998;10.440;2022-12-29T05:02:13;12.80;96.40
32107;DHT22;18622;51.998;10.440;2022-12-29T05:04:40;12.80;96.50
32107;DHT22;18622;51.998;10.440;2022-12-29T05:07:08;12.80;96.40
32107;DHT22;18622;51.998;10.440;2022-12-29T05:09:36;12.80;96.40
32107;DHT22;18622;51.998;10.440;2022-12-29T05:12:04;12.80;96.30
32107;DHT22;18622;51.998;10.440;2022-12-29T05:14:32;12.80;96.20
32107;DHT22;18622;51.998;10.440;2022-12-29T05:17:00;12.80;96.30
32107;DHT22;18622;51.998;10.440;2022-12-29T05:19:27;12.80;96.30
32107;DHT22;18622;51.998;10.440;2022-12-29T05:21:55;12.80;96.50
32107;DHT22;18622;51.998;10.440;2022-12-29T05:24:23;12.70;96.70
32107;DHT22;18622;51.998;10.440;2022-12-29T05:26:51;12.70;96.80
32107;DHT22;18622;51.998;10.440;2022-12-29T05:29:19;12.60;97.30
32107;DHT22;18622;51.998;10.440;2022-12-29T05:31:47;12.40;97.80
32107;DHT22;18622;51.998;10.440;2022-12-29T05:34:14;12.50;97.80
32107;DHT22;18622;51.998;10.440;2022-12-29T05:36:42;12.50;98.00
32107;DHT22;18622;51.998;10.440;2022-12-29T05:39:10;12.50;97.90
32107;DHT22;18622;51.998;10.440;2022-12-29T05:41:38;12.50;97.80
32107;DHT22;18622;51.998;10.440;2022-12-29T05:44:06;12.50;98.00
32107;DHT22;18622;51.998;10.440;2022-12-29T05:46:33;12.50;98.00
32107;DHT22;18622;51.998;10.440;2022-12-29T05:49:01;12.50;98.00
32107;DHT22;18622;51.998;10.440;2022-12-29T05:51:29;12.50;98.00
32107;DHT22;18622;51.998;10.440;2022-12-29T05:53:57;12.50;98.10
32107;DHT22;18622;51.998;10.440;2022-12-29T05:56:24;12.50;98.10
32107;DHT22;18622;51.998;10.440;2022-12-29T05:58:52;12.50;98.10
32107;DHT22;18622;51.998;10.440;2022-12-29T06:01:20;12.50;98.10
32107;DHT22;18622;51.998;10.440;2022-12-29T06:03:48;12.60;98.20
32107;DHT22;18622;51.998;10.440;2022-12-29T06:06:16;12.60;98.20
32107;DHT22;18622;51.998;10.440;2022-12-29T06:08:43;12.60;98.40
32107;DHT22;18622;51.998;10.440;2022-12-29T06:11:12;12.50;98.80
32107;DHT22;18622;51.998;10.440;2022-12-29T06:13:39;12.30;99.10
32107;DHT22;18622;51.998;10.440;2022-12-29T06:16:07;12.30;99.30
32107;DHT22;18622;51.998;10.440;2022-12-29T06:18:35;12.20;99.60
32107;DHT22;18622;51.998;10.440;2022-12-29T06:21:04;12.20;99.70
32107;DHT22;18622;51.998;10.440;2022-12-29T06:23:32;12.20;99.70
32107;DHT22;18622;51.998;10.440;2022-12-29T06:25:59;12.30;99.70
32107;DHT22;18622;51.998;10.440;2022-12-29T06:28:27;12.30;99.60
32107;DHT22;18622;51.998;10.440;2022-12-29T10:00:21;12.20;98.80
32107;DHT22;18622;51.998;10.440;2022-12-29T10:02:59;12.20;98.70
32107;DHT22;18622;51.998;10.440;2022-12-29T10:08:20;12.50;98.80
32107;DHT22;18622;51.998;10.440;2022-12-29T10:10:59;12.60;98.50
32107;DHT22;18622;51.998;10.440;2022-12-29T10:21:52;13.10;98.70
32107;DHT22;18622;51.998;10.440;2022-12-29T10:24:17;13.30;98.20
32107;DHT22;18622;51.998;10.440;2022-12-29T10:26:47;13.40;97.30
32107;DHT22;18622;51.998;10.440;2022-12-29T10:29:32;13.50;97.00
32107;DHT22;18622;51.998;10.440;2022-12-29T10:32:05;13.70;96.50
32107;DHT22;18622;51.998;10.440;2022-12-29T10:34:38;14.40;95.80
32107;DHT22;18622;51.998;10.440;2022-12-29T10:39:50;15.60;93.90
32107;DHT22;18622;51.998;10.440;2022-12-29T10:42:26;15.80;91.80
32107;DHT22;18622;51.998;10.440;2022-12-29T10:44:56;16.10;90.80
32107;DHT22;18622;51.998;10.440;2022-12-29T10:47:30;16.50;90.20
32107;DHT22;18622;51.998;10.440;2022-12-29T10:50:00;17.20;87.60
32107;DHT22;18622;51.998;10.440;2022-12-29T10:52:29;17.70;84.70
32107;DHT22;18622;51.998;10.440;2022-12-29T10:55:05;18.00;81.40
32107;DHT22;18622;51.998;10.440;2022-12-29T10:57:39;17.80;80.20
32107;DHT22;18622;51.998;10.440;2022-12-29T11:00:16;17.50;80.90
32107;DHT22;18622;51.998;10.440;2022-12-29T11:02:59;17.00;83.40
32107;DHT22;18622;51.998;10.440;2022-12-29T11:05:33;16.40;82.80
32107;DHT22;18622;51.998;10.440;2022-12-29T11:08:02;15.80;84.60
32107;DHT22;18622;51.998;10.440;2022-12-29T11:13:19;15.00;87.20
32107;DHT22;18622;51.998;10.440;2022-12-29T11:15:49;14.70;87.80
32107;DHT22;18622;51.998;10.440;2022-12-29T11:18:25;14.50;88.70
32107;DHT22;18622;51.998;10.440;2022-12-29T11:20:56;14.30;90.00
32107;DHT22;18622;51.998;10.440;2022-12-29T11:23:32;14.10;90.50
32107;DHT22;18622;51.998;10.440;2022-12-29T11:26:12;14.00;90.80
32107;DHT22;18622;51.998;10.440;2022-12-29T11:28:38;13.90;91.00
32107;DHT22;18622;51.998;10.440;2022-12-29T11:31:07;13.80;91.40
32107;DHT22;18622;51.998;10.440;2022-12-29T11:33:38;13.80;91.60
32107;DHT22;18622;51.998;10.440;2022-12-29T11:36:10;13.90;91.90
32107;DHT22;18622;51.998;10.440;2022-12-29T11:38:48;14.10;91.80
32107;DHT22;18622;51.998;10.440;2022-12-29T11:41:13;14.20;91.90
32107;DHT22;18622;51.998;10.440;2022-12-29T11:43:43;14.40;91.80
32107;DHT22;18622;51.998;10.440;2022-12-29T11:46:29;14.50;91.40
32107;DHT22;18622;51.998;10.440;2022-12-29T11:48:57;14.50;91.50
32107;DHT22;18622;51.998;10.440;2022-12-29T11:51:44;14.30;91.60
32107;DHT22;18622;51.998;10.440;2022-12-29T11:54:30;14.20;91.70
32107;DHT22;18622;51.998;10.440;2022-12-29T11:57:07;14.10;92.00
32107;DHT22;18622;51.998;10.440;2022-12-29T16:02:21;11.00;99.70
32107;DHT22;18622;51.998;10.440;2022-12-29T16:04:50;10.80;99.90
32107;DHT22;18622;51.998;10.440;2022-12-29T16:07:27;10.50;99.90
32107;DHT22;18622;51.998;10.440;2022-12-29T16:10:00;10.30;99.90
32107;DHT22;18622;51.998;10.440;2022-12-29T16:12:34;10.10;99.90
32107;DHT22;18622;51.998;10.440;2022-12-29T16:15:05;10.00;99.90
32107;DHT22;18622;51.998;10.440;2022-12-29T16:17:41;10.00;99.90
32107;DHT22;18622;51.998;10.440;2022-12-29T16:20:17;10.00;99.90
32107;DHT22;18622;51.998;10.440;2022-12-29T16:22:48;10.00;99.90
32107;DHT22;18622;51.998;10.440;2022-12-29T16:25:30;10.00;99.90
32107;DHT22;18622;51.998;10.440;2022-12-29T16:28:01;10.10;99.90
32107;DHT22;18622;51.998;10.440;2022-12-29T16:30:32;10.10;99.90
32107;DHT22;18622;51.998;10.440;2022-12-29T16:33:02;10.20;99.90
32107;DHT22;18622;51.998;10.440;2022-12-29T16:35:45;10.30;99.90
32107;DHT22;18622;51.998;10.440;2022-12-29T16:38:30;10.30;99.90
32107;DHT22;18622;51.998;10.440;2022-12-29T16:40:55;10.40;99.90
32107;DHT22;18622;51.998;10.440;2022-12-29T16:43:28;10.50;99.90
32107;DHT22;18622;51.998;10.440;2022-12-29T16:46:15;10.60;99.90
32107;DHT22;18622;51.998;10.440;2022-12-29T16:48:34;10.70;99.90
32107;DHT22;18622;51.998;10.440;2022-12-29T16:53:37;10.80;99.90
32107;DHT22;18622;51.998;10.440;2022-12-29T16:56:21;10.90;99.90
32107;DHT22;18622;51.998;10.440;2022-12-29T16:58:49;10.90;99.90
32107;DHT22;18622;51.998;10.440;2022-12-29T17:01:19;11.00;99.90
32107;DHT22;18622;51.998;10.440;2022-12-29T17:03:57;11.20;99.40
32107;DHT22;18622;51.998;10.440;2022-12-29T17:06:24;11.20;99.10
32107;DHT22;18622;51.998;10.440;2022-12-29T17:08:52;11.20;99.20
32107;DHT22;18622;51.998;10.440;2022-12-29T17:11:33;11.20;99.00
32107;DHT22;18622;51.998;10.440;2022-12-29T17:16:52;11.30;98.20
32107;DHT22;18622;51.998;10.440;2022-12-29T17:19:25;11.30;98.10
32107;DHT22;18622;51.998;10.440;2022-12-29T17:21:50;11.20;97.80
32107;DHT22;18622;51.998;10.440;2022-12-29T17:24:19;11.20;97.50
32107;DHT22;18622;51.998;10.440;2022-12-29T17:26:50;11.10;97.50
32107;DHT22;18622;51.998;10.440;2022-12-29T17:29:29;11.10;97.50
32107;DHT22;18622;51.998;10.440;2022-12-29T17:31:59;11.00;97.50
32107;DHT22;18622;51.998;10.440;2022-12-29T17:34:27;10.80;97.60
32107;DHT22;18622;51.998;10.440;2022-12-29T17:36:55;10.80;97.70
32107;DHT22;18622;51.998;10.440;2022-12-29T17:39:23;10.80;97.80
32107;DHT22;18622;51.998;10.440;2022-12-29T17:41:50;10.80;97.80
32107;DHT22;18622;51.998;10.440;2022-12-29T17:44:19;10.70;97.70
32107;DHT22;18622;51.998;10.440;2022-12-29T17:46:48;10.60;98.00
32107;DHT22;18622;51.998;10.440;2022-12-29T17:49:17;10.60;97.90
32107;DHT22;18622;51.998;10.440;2022-12-29T17:51:45;10.60;97.80
32107;DHT22;18622;51.998;10.440;2022-12-29T17:54:21;10.60;97.90
32107;DHT22;18622;51.998;10.440;2022-12-29T17:56:50;10.60;98.00
32107;DHT22;18622;51.998;10.440;2022-12-29T17:59:18;10.60;97.90
32107;DHT22;18622;51.998;10.440;2022-12-29T18:01:47;10.60;97.80
32107;DHT22;18622;51.998;10.440;2022-12-29T18:04:19;10.70;97.50
32107;DHT22;18622;51.998;10.440;2022-12-29T18:06:46;10.70;97.10
32107;DHT22;18622;51.998;10.440;2022-12-29T18:09:14;10.80;96.90
32107;DHT22;18622;51.998;10.440;2022-12-29T18:11:44;11.00;97.00
32107;DHT22;18622;51.998;10.440;2022-12-29T18:14:13;11.00;96.70
32107;DHT22;18622;51.998;10.440;2022-12-29T18:16:41;11.10;96.80
32107;DHT22;18622;51.998;10.440;2022-12-29T18:19:09;11.20;96.70
32107;DHT22;18622;51.998;10.440;2022-12-29T18:21:37;11.30;96.60
32107;DHT22;18622;51.998;10.440;2022-12-29T18:24:08;11.30;96.20
32107;DHT22;18622;51.998;10.440;2022-12-29T18:26:35;11.30;96.30
32107;DHT22;18622;51.998;10.440;2022-12-29T18:29:03;11.30;96.10
32107;DHT22;18622;51.998;10.440;2022-12-29T18:31:32;11.30;96.20
32107;DHT22;18622;51.998;10.440;2022-12-29T18:34:06;11.20;96.10
32107;DHT22;18622;51.998;10.440;2022-12-29T18:36:32;11.20;96.10
32107;DHT22;18622;51.998;10.440;2022-12-29T18:39:01;11.20;96.20
32107;DHT22;18622;51.998;10.440;2022-12-29T18:41:29;11.20;96.20
32107;DHT22;18622;51.998;10.440;2022-12-29T18:43:57;11.20;96.00
32107;DHT22;18622;51.998;10.440;2022-12-29T18:46:25;11.30;96.20
32107;DHT22;18622;51.998;10.440;2022-12-29T18:48:53;11.30;95.90
32107;DHT22;18622;51.998;10.440;2022-12-29T18:51:23;11.30;95.60
32107;DHT22;18622;51.998;10.440;2022-12-29T18:53:51;11.30;95.40
32107;DHT22;18622;51.998;10.440;2022-12-29T18:56:19;11.40;95.40
32107;DHT22;18622;51.998;10.440;2022-12-29T18:58:48;11.40;95.30
32107;DHT22;18622;51.998;10.440;2022-12-29T19:01:21;11.40;95.30
32107;DHT22;18622;51.998;10.440;2022-12-29T19:03:50;11.40;95.30
32107;DHT22;18622;51.998;10.440;2022-12-29T19:06:18;11.50;95.30
32107;DHT22;18622;51.998;10.440;2022-12-29T19:08:46;11.50;95.30
32107;DHT22;18622;51.998;10.440;2022-12-29T19:11:14;11.50;95.20
32107;DHT22;18622;51.998;10.440;2022-12-29T19:13:43;11.50;94.90
32107;DHT22;18622;51.998;10.440;2022-12-29T19:16:19;11.50;94.40
32107;DHT22;18622;51.998;10.440;2022-12-29T19:18:48;11.50;94.20
32107;DHT22;18622;51.998;10.440;2022-12-29T19:21:16;11.50;93.90
32107;DHT22;18622;51.998;10.440;2022-12-29T19:23:45;11.50;94.10
32107;DHT22;18622;51.998;10.440;2022-12-29T19:26:31;11.50;94.10
32107;DHT22;18622;51.998;10.440;2022-12-29T19:29:00;11.50;94.00
32107;DHT22;18622;51.998;10.440;2022-12-29T19:31:27;11.40;94.20
32107;DHT22;18622;51.998;10.440;2022-12-29T19:33:55;11.40;94.20
32107;DHT22;18622;51.998;10.440;2022-12-29T19:36:23;11.40;93.80
32107;DHT22;18622;51.998;10.440;2022-12-29T19:38:51;11.40;93.90
32107;DHT22;18622;51.998;10.440;2022-12-29T19:41:20;11.40;93.70
32107;DHT22;18622;51.998;10.440;2022-12-29T19:43:47;11.30;93.40
32107;DHT22;18622;51.998;10.440;2022-12-29T19:46:17;11.30;93.30
32107;DHT22;18622;51.998;10.440;2022-12-29T19:48:46;11.20;93.40
32107;DHT22;18622;51.998;10.440;2022-12-29T19:51:15;11.00;93.50
32107;DHT22;18622;51.998;10.440;2022-12-29T19:53:43;10.90;93.70
32107;DHT22;18622;51.998;10.440;2022-12-29T19:56:11;10.80;93.70
32107;DHT22;18622;51.998;10.440;2022-12-29T19:58:39;10.70;93.70
32107;DHT22;18622;51.998;10.440;2022-12-29T20:01:11;10.60;93.80
32107;DHT22;18622;51.998;10.440;2022-12-29T20:03:38;10.60;93.90
32107;DHT22;18622;51.998;10.440;2022-12-29T20:06:09;10.50;93.90
32107;DHT22;18622;51.998;10.440;2022-12-29T20:08:36;10.50;93.90
32107;DHT22;18622;51.998;10.440;2022-12-29T20:11:14;10.50;93.90
32107;DHT22;18622;51.998;10.440;2022-12-29T20:13:39;10.40;94.00
32107;DHT22;18622;51.998;10.440;2022-12-29T20:16:11;10.30;94.10
32107;DHT22;18622;51.998;10.440;2022-12-29T20:18:38;10.30;94.10
32107;DHT22;18622;51.998;10.440;2022-12-29T20:21:14;10.20;94.20
32107;DHT22;18622;51.998;10.440;2022-12-29T20:23:43;10.20;94.20
32107;DHT22;18622;51.998;10.440;2022-12-29T20:26:27;10.20;94.30
32107;DHT22;18622;51.998;10.440;2022-12-29T20:28:52;10.20;94.30
32107;DHT22;18622;51.998;10.440;2022-12-29T20:31:25;10.10;94.40
32107;DHT22;18622;51.998;10.440;2022-12-29T20:33:53;10.10;94.30
32107;DHT22;18622;51.998;10.440;2022-12-29T20:36:24;10.10;94.40
32107;DHT22;18622;51.998;10.440;2022-12-29T20:38:53;10.20;94.50
32107;DHT22;18622;51.998;10.440;2022-12-29T20:41:21;10.20;94.20
32107;DHT22;18622;51.998;10.440;2022-12-29T20:43:50;10.30;94.30
32107;DHT22;18622;51.998;10.440;2022-12-29T20:46:21;10.30;94.50
32107;DHT22;18622;51.998;10.440;2022-12-29T20:48:49;10.40;94.60
32107;DHT22;18622;51.998;10.440;2022-12-29T20:51:18;10.50;94.70
32107;DHT22;18622;51.998;10.440;2022-12-29T20:53:47;10.50;94.40
32107;DHT22;18622;51.998;10.440;2022-12-29T20:56:21;10.60;94.40
32107;DHT22;18622;51.998;10.440;2022-12-29T20:58:46;10.70;94.40
32107;DHT22;18622;51.998;10.440;2022-12-29T21:01:17;10.70;94.20
32107;DHT22;18622;51.998;10.440;2022-12-29T21:03:45;10.80;94.40
32107;DHT22;18622;51.998;10.440;2022-12-29T21:06:13;10.90;94.20
32107;DHT22;18622;51.998;10.440;2022-12-29T21:08:42;10.90;94.20
32107;DHT22;18622;51.998;10.440;2022-12-29T21:11:10;10.90;94.30
32107;DHT22;18622;51.998;10.440;2022-12-29T21:13:37;10.90;94.20
32107;DHT22;18622;51.998;10.440;2022-12-29T21:16:07;10.90;94.20
32107;DHT22;18622;51.998;10.440;2022-12-29T21:18:35;10.90;94.50
32107;DHT22;18622;51.998;10.440;2022-12-29T21:21:09;10.90;94.60
32107;DHT22;18622;51.998;10.440;2022-12-29T21:23:38;10.90;94.60
32107;DHT22;18622;51.998;10.440;2022-12-29T21:26:10;10.90;94.70
32107;DHT22;18622;51.998;10.440;2022-12-29T21:28:39;10.90;94.50
32107;DHT22;18622;51.998;10.440;2022-12-29T21:31:26;10.80;94.90
32107;DHT22;18622;51.998;10.440;2022-12-29T21:33:55;10.70;95.00
32107;DHT22;18622;51.998;10.440;2022-12-29T21:36:24;10.50;95.70
32107;DHT22;18622;51.998;10.440;2022-12-29T21:38:52;10.20;96.50
32107;DHT22;18622;51.998;10.440;2022-12-29T21:41:20;9.90;97.90
32107;DHT22;18622;51.998;10.440;2022-12-29T21:43:48;9.70;99.90
32107;DHT22;18622;51.998;10.440;2022-12-29T21:46:36;9.40;99.90
32107;DHT22;18622;51.998;10.440;2022-12-29T21:49:05;9.10;99.90
32107;DHT22;18622;51.998;10.440;2022-12-29T21:51:33;8.90;99.90
32107;DHT22;18622;51.998;10.440;2022-12-29T21:54:22;8.70;99.90
32107;DHT22;18622;51.998;10.440;2022-12-29T21:57:09;8.60;99.90
32107;DHT22;18622;51.998;10.440;2022-12-29T21:59:37;8.60;99.90
